KHSV/HSV METAR and TAF weather

Enter ICAO airport designator
Station Type Date Time Source
KHSV METAR 2019/08/18 08:53 UTC NOAA

KHSV 180853Z AUTO 00000KT 10SM CLR 21/20 A2995 RMK AO2 SLP133 T02110200 56007 $


Station Type Date Time Source
KHSV Decoded METAR 2019/08/18 08:53 UTC NOAA

Station name not available
Aug 18, 2019 - 04:53 AM EDT / 2019.08.18 0853 UTC
Wind: Calm:0
Visibility: 10 mile(s):0
Sky conditions: clear
Temperature: 70.0 F (21.1 C)
Dew Point: 68.0 F (20.0 C)
Relative Humidity: 93%
Pressure (altimeter): 29.95 in. Hg (1014 hPa)
Pressure tendency: 0.02 inches (0.7 hPa) lower than three hours ago
ob: KHSV 180853Z AUTO 00000KT 10SM CLR 21/20 A2995 RMK AO2 SLP133 T02110200 56007
cycle: 9

Station Type Date Time Source
KHSV TAF 2019/08/18 06:22 UTC NOAA

TAF KHSV 180520Z 1806/1906 VRB05KT P6SM FEW250

Example: see airport list